sensor_id;sensor_type;location;lat;lon;timestamp;temperature;humidity
74384;DHT22;62824;52.994;-3.936;2023-04-25T00:01:21;6.00;99.90
74384;DHT22;62824;52.994;-3.936;2023-04-25T00:03:49;5.90;99.90
74384;DHT22;62824;52.994;-3.936;2023-04-25T00:06:16;5.70;99.90
74384;DHT22;62824;52.994;-3.936;2023-04-25T00:08:43;5.60;99.90
74384;DHT22;62824;52.994;-3.936;2023-04-25T00:11:09;5.80;99.90
74384;DHT22;62824;52.994;-3.936;2023-04-25T00:13:35;5.90;99.90
74384;DHT22;62824;52.994;-3.936;2023-04-25T00:16:01;5.70;99.90
74384;DHT22;62824;52.994;-3.936;2023-04-25T00:18:28;5.60;99.90
74384;DHT22;62824;52.994;-3.936;2023-04-25T00:20:59;5.60;99.90
74384;DHT22;62824;52.994;-3.936;2023-04-25T00:23:25;5.50;99.90
74384;DHT22;62824;52.994;-3.936;2023-04-25T00:25:51;5.60;99.90
74384;DHT22;62824;52.994;-3.936;2023-04-25T00:28:17;5.50;99.90
74384;DHT22;62824;52.994;-3.936;2023-04-25T00:30:43;5.50;99.90
74384;DHT22;62824;52.994;-3.936;2023-04-25T00:33:09;5.30;99.90
74384;DHT22;62824;52.994;-3.936;2023-04-25T00:35:35;5.10;99.90
74384;DHT22;62824;52.994;-3.936;2023-04-25T00:38:01;5.00;99.90
74384;DHT22;62824;52.994;-3.936;2023-04-25T00:40:28;5.00;99.90
74384;DHT22;62824;52.994;-3.936;2023-04-25T00:42:55;5.00;99.90
74384;DHT22;62824;52.994;-3.936;2023-04-25T00:45:20;5.00;99.90
74384;DHT22;62824;52.994;-3.936;2023-04-25T00:47:46;4.90;99.90
74384;DHT22;62824;52.994;-3.936;2023-04-25T00:50:13;4.90;99.90
74384;DHT22;62824;52.994;-3.936;2023-04-25T00:52:40;4.90;99.90
74384;DHT22;62824;52.994;-3.936;2023-04-25T00:55:07;4.80;99.90
74384;DHT22;62824;52.994;-3.936;2023-04-25T00:57:34;4.80;99.90
74384;DHT22;62824;52.994;-3.936;2023-04-25T01:00:00;5.00;99.90
74384;DHT22;62824;52.994;-3.936;2023-04-25T01:02:30;5.10;99.90
74384;DHT22;62824;52.994;-3.936;2023-04-25T01:04:56;5.10;99.90
74384;DHT22;62824;52.994;-3.936;2023-04-25T01:07:23;5.20;99.90
74384;DHT22;62824;52.994;-3.936;2023-04-25T01:09:51;5.30;99.90
74384;DHT22;62824;52.994;-3.936;2023-04-25T01:12:17;5.30;99.90
74384;DHT22;62824;52.994;-3.936;2023-04-25T01:14:43;5.40;99.90
74384;DHT22;62824;52.994;-3.936;2023-04-25T01:17:10;5.30;99.90
74384;DHT22;62824;52.994;-3.936;2023-04-25T01:19:36;5.40;99.90
74384;DHT22;62824;52.994;-3.936;2023-04-25T01:22:02;5.40;99.90
74384;DHT22;62824;52.994;-3.936;2023-04-25T01:24:30;5.50;99.90
74384;DHT22;62824;52.994;-3.936;2023-04-25T01:26:57;5.50;99.90
74384;DHT22;62824;52.994;-3.936;2023-04-25T01:29:23;5.50;99.90
74384;DHT22;62824;52.994;-3.936;2023-04-25T01:31:51;5.20;99.90
74384;DHT22;62824;52.994;-3.936;2023-04-25T01:34:18;5.00;99.90
74384;DHT22;62824;52.994;-3.936;2023-04-25T01:36:44;5.00;99.90
74384;DHT22;62824;52.994;-3.936;2023-04-25T01:39:10;4.90;99.90
74384;DHT22;62824;52.994;-3.936;2023-04-25T01:41:36;4.80;99.90
74384;DHT22;62824;52.994;-3.936;2023-04-25T01:44:02;4.70;99.90
74384;DHT22;62824;52.994;-3.936;2023-04-25T01:46:28;4.70;99.90
74384;DHT22;62824;52.994;-3.936;2023-04-25T01:48:54;4.70;99.90
74384;DHT22;62824;52.994;-3.936;2023-04-25T01:51:20;4.60;99.90
74384;DHT22;62824;52.994;-3.936;2023-04-25T01:53:46;4.60;99.90
74384;DHT22;62824;52.994;-3.936;2023-04-25T01:56:12;4.60;99.90
74384;DHT22;62824;52.994;-3.936;2023-04-25T01:58:38;4.50;99.90
74384;DHT22;62824;52.994;-3.936;2023-04-25T02:01:04;4.60;99.90
74384;DHT22;62824;52.994;-3.936;2023-04-25T02:03:31;4.70;99.90
74384;DHT22;62824;52.994;-3.936;2023-04-25T02:05:57;4.80;99.90
74384;DHT22;62824;52.994;-3.936;2023-04-25T02:08:23;4.80;99.90
74384;DHT22;62824;52.994;-3.936;2023-04-25T02:10:51;4.80;99.90
74384;DHT22;62824;52.994;-3.936;2023-04-25T02:13:17;4.80;99.90
74384;DHT22;62824;52.994;-3.936;2023-04-25T02:15:43;4.60;99.90
74384;DHT22;62824;52.994;-3.936;2023-04-25T02:18:09;4.70;99.90
74384;DHT22;62824;52.994;-3.936;2023-04-25T02:20:36;4.50;99.90
74384;DHT22;62824;52.994;-3.936;2023-04-25T02:23:02;4.50;99.90
74384;DHT22;62824;52.994;-3.936;2023-04-25T02:25:28;4.60;99.90
74384;DHT22;62824;52.994;-3.936;2023-04-25T02:27:57;4.60;99.90
74384;DHT22;62824;52.994;-3.936;2023-04-25T02:30:22;4.60;99.90
74384;DHT22;62824;52.994;-3.936;2023-04-25T02:32:48;4.70;99.90
74384;DHT22;62824;52.994;-3.936;2023-04-25T02:35:14;4.70;99.90
74384;DHT22;62824;52.994;-3.936;2023-04-25T02:37:40;4.70;99.90
74384;DHT22;62824;52.994;-3.936;2023-04-25T02:40:06;4.60;99.90
74384;DHT22;62824;52.994;-3.936;2023-04-25T02:42:33;4.60;99.90
74384;DHT22;62824;52.994;-3.936;2023-04-25T02:44:59;4.70;99.90
74384;DHT22;62824;52.994;-3.936;2023-04-25T02:47:25;4.70;99.90
74384;DHT22;62824;52.994;-3.936;2023-04-25T02:49:51;4.70;99.90
74384;DHT22;62824;52.994;-3.936;2023-04-25T02:52:17;4.70;99.90
74384;DHT22;62824;52.994;-3.936;2023-04-25T02:54:43;4.80;99.90
74384;DHT22;62824;52.994;-3.936;2023-04-25T02:57:08;4.70;99.90
74384;DHT22;62824;52.994;-3.936;2023-04-25T02:59:35;4.60;99.90
74384;DHT22;62824;52.994;-3.936;2023-04-25T03:02:01;4.60;99.90
74384;DHT22;62824;52.994;-3.936;2023-04-25T03:04:27;4.40;99.90
74384;DHT22;62824;52.994;-3.936;2023-04-25T03:06:56;4.30;99.90
74384;DHT22;62824;52.994;-3.936;2023-04-25T03:09:22;4.10;99.90
74384;DHT22;62824;52.994;-3.936;2023-04-25T03:11:47;4.00;99.90
74384;DHT22;62824;52.994;-3.936;2023-04-25T03:14:14;3.90;99.90
74384;DHT22;62824;52.994;-3.936;2023-04-25T03:16:40;3.90;99.90
74384;DHT22;62824;52.994;-3.936;2023-04-25T03:19:06;3.90;99.90
74384;DHT22;62824;52.994;-3.936;2023-04-25T03:21:33;3.90;99.90
74384;DHT22;62824;52.994;-3.936;2023-04-25T03:24:00;4.00;99.90
74384;DHT22;62824;52.994;-3.936;2023-04-25T03:26:26;4.10;99.90
74384;DHT22;62824;52.994;-3.936;2023-04-25T03:28:51;4.10;99.90
74384;DHT22;62824;52.994;-3.936;2023-04-25T03:31:17;4.10;99.90
74384;DHT22;62824;52.994;-3.936;2023-04-25T03:33:43;4.10;99.90
74384;DHT22;62824;52.994;-3.936;2023-04-25T03:36:09;4.10;99.90
74384;DHT22;62824;52.994;-3.936;2023-04-25T03:38:35;4.10;99.90
74384;DHT22;62824;52.994;-3.936;2023-04-25T03:41:02;4.10;99.90
74384;DHT22;62824;52.994;-3.936;2023-04-25T03:43:28;4.10;99.90
74384;DHT22;62824;52.994;-3.936;2023-04-25T03:45:53;4.00;99.90
74384;DHT22;62824;52.994;-3.936;2023-04-25T03:48:19;4.10;99.90
74384;DHT22;62824;52.994;-3.936;2023-04-25T03:50:47;4.00;99.90
74384;DHT22;62824;52.994;-3.936;2023-04-25T03:53:13;4.10;99.90
74384;DHT22;62824;52.994;-3.936;2023-04-25T03:55:39;4.00;99.90
74384;DHT22;62824;52.994;-3.936;2023-04-25T03:58:05;4.00;99.90
74384;DHT22;62824;52.994;-3.936;2023-04-25T04:00:31;3.90;99.90
74384;DHT22;62824;52.994;-3.936;2023-04-25T04:02:57;3.90;99.90
74384;DHT22;62824;52.994;-3.936;2023-04-25T04:05:23;3.90;99.90
74384;DHT22;62824;52.994;-3.936;2023-04-25T04:07:49;3.90;99.90
74384;DHT22;62824;52.994;-3.936;2023-04-25T04:10:15;3.90;99.90
74384;DHT22;62824;52.994;-3.936;2023-04-25T04:12:41;3.90;99.90
74384;DHT22;62824;52.994;-3.936;2023-04-25T04:15:07;4.00;99.90
74384;DHT22;62824;52.994;-3.936;2023-04-25T04:17:33;3.90;99.90
74384;DHT22;62824;52.994;-3.936;2023-04-25T04:19:59;3.80;99.90
74384;DHT22;62824;52.994;-3.936;2023-04-25T04:22:25;3.80;99.90
74384;DHT22;62824;52.994;-3.936;2023-04-25T04:24:51;3.90;99.90
74384;DHT22;62824;52.994;-3.936;2023-04-25T04:27:18;3.90;99.90
74384;DHT22;62824;52.994;-3.936;2023-04-25T04:29:46;3.90;99.90
74384;DHT22;62824;52.994;-3.936;2023-04-25T04:32:13;4.00;99.90
74384;DHT22;62824;52.994;-3.936;2023-04-25T04:34:39;3.90;99.90
74384;DHT22;62824;52.994;-3.936;2023-04-25T04:37:05;3.80;99.90
74384;DHT22;62824;52.994;-3.936;2023-04-25T04:39:33;3.70;99.90
74384;DHT22;62824;52.994;-3.936;2023-04-25T04:41:59;3.60;99.90
74384;DHT22;62824;52.994;-3.936;2023-04-25T04:44:27;3.60;99.90
74384;DHT22;62824;52.994;-3.936;2023-04-25T04:46:54;3.60;99.90
74384;DHT22;62824;52.994;-3.936;2023-04-25T04:49:21;3.60;99.90
74384;DHT22;62824;52.994;-3.936;2023-04-25T04:51:46;3.70;99.90
74384;DHT22;62824;52.994;-3.936;2023-04-25T04:54:13;3.70;99.90
74384;DHT22;62824;52.994;-3.936;2023-04-25T04:56:39;3.80;99.90
74384;DHT22;62824;52.994;-3.936;2023-04-25T04:59:05;3.70;99.90
74384;DHT22;62824;52.994;-3.936;2023-04-25T05:01:30;3.70;99.90
74384;DHT22;62824;52.994;-3.936;2023-04-25T05:03:57;3.80;99.90
74384;DHT22;62824;52.994;-3.936;2023-04-25T05:06:27;3.70;99.90
74384;DHT22;62824;52.994;-3.936;2023-04-25T05:08:55;3.60;99.90
74384;DHT22;62824;52.994;-3.936;2023-04-25T05:11:21;3.60;99.90
74384;DHT22;62824;52.994;-3.936;2023-04-25T05:13:49;3.60;99.90
74384;DHT22;62824;52.994;-3.936;2023-04-25T05:16:15;3.60;99.90
74384;DHT22;62824;52.994;-3.936;2023-04-25T05:18:41;3.60;99.90
74384;DHT22;62824;52.994;-3.936;2023-04-25T05:21:07;3.60;99.90
74384;DHT22;62824;52.994;-3.936;2023-04-25T05:23:33;3.60;99.90
74384;DHT22;62824;52.994;-3.936;2023-04-25T05:25:59;3.70;99.90
74384;DHT22;62824;52.994;-3.936;2023-04-25T05:28:25;3.70;99.90
74384;DHT22;62824;52.994;-3.936;2023-04-25T05:30:51;3.80;99.90
74384;DHT22;62824;52.994;-3.936;2023-04-25T05:33:17;3.70;99.90
74384;DHT22;62824;52.994;-3.936;2023-04-25T05:35:43;3.70;99.90
74384;DHT22;62824;52.994;-3.936;2023-04-25T05:38:08;3.70;99.90
74384;DHT22;62824;52.994;-3.936;2023-04-25T05:40:34;3.70;99.90
74384;DHT22;62824;52.994;-3.936;2023-04-25T05:43:00;3.80;99.90
74384;DHT22;62824;52.994;-3.936;2023-04-25T05:45:26;3.70;99.90
74384;DHT22;62824;52.994;-3.936;2023-04-25T05:47:52;3.80;99.90
74384;DHT22;62824;52.994;-3.936;2023-04-25T05:50:18;3.80;99.90
74384;DHT22;62824;52.994;-3.936;2023-04-25T05:52:43;3.70;99.90
74384;DHT22;62824;52.994;-3.936;2023-04-25T05:55:09;3.80;99.90
74384;DHT22;62824;52.994;-3.936;2023-04-25T05:57:35;3.80;99.90
74384;DHT22;62824;52.994;-3.936;2023-04-25T06:00:01;3.90;99.90
74384;DHT22;62824;52.994;-3.936;2023-04-25T06:02:27;3.80;99.90
74384;DHT22;62824;52.994;-3.936;2023-04-25T06:04:53;3.90;99.90
74384;DHT22;62824;52.994;-3.936;2023-04-25T06:07:19;3.90;99.90
74384;DHT22;62824;52.994;-3.936;2023-04-25T06:09:45;3.90;99.90
74384;DHT22;62824;52.994;-3.936;2023-04-25T06:12:11;3.90;99.90
74384;DHT22;62824;52.994;-3.936;2023-04-25T06:14:37;3.90;99.90
74384;DHT22;62824;52.994;-3.936;2023-04-25T06:17:03;3.90;99.90
74384;DHT22;62824;52.994;-3.936;2023-04-25T06:19:34;3.90;99.90
74384;DHT22;62824;52.994;-3.936;2023-04-25T06:22:00;3.90;99.90
74384;DHT22;62824;52.994;-3.936;2023-04-25T06:24:27;4.00;99.90
74384;DHT22;62824;52.994;-3.936;2023-04-25T06:26:53;4.00;99.90
74384;DHT22;62824;52.994;-3.936;2023-04-25T06:29:18;4.00;99.90
74384;DHT22;62824;52.994;-3.936;2023-04-25T06:31:44;4.20;99.90
74384;DHT22;62824;52.994;-3.936;2023-04-25T06:34:10;4.30;99.90
74384;DHT22;62824;52.994;-3.936;2023-04-25T06:36:36;4.30;99.90
74384;DHT22;62824;52.994;-3.936;2023-04-25T06:39:02;4.30;99.90
74384;DHT22;62824;52.994;-3.936;2023-04-25T06:41:28;4.40;99.90
74384;DHT22;62824;52.994;-3.936;2023-04-25T06:43:53;4.60;99.90
74384;DHT22;62824;52.994;-3.936;2023-04-25T06:46:19;4.60;99.90
74384;DHT22;62824;52.994;-3.936;2023-04-25T06:48:45;4.90;99.90
74384;DHT22;62824;52.994;-3.936;2023-04-25T06:51:11;5.10;99.90
74384;DHT22;62824;52.994;-3.936;2023-04-25T06:53:38;5.40;99.90
74384;DHT22;62824;52.994;-3.936;2023-04-25T06:56:04;5.90;99.90
74384;DHT22;62824;52.994;-3.936;2023-04-25T06:58:30;6.60;99.90
74384;DHT22;62824;52.994;-3.936;2023-04-25T07:00:56;7.10;99.90
74384;DHT22;62824;52.994;-3.936;2023-04-25T07:03:22;7.70;99.90
74384;DHT22;62824;52.994;-3.936;2023-04-25T07:05:48;8.40;99.80
74384;DHT22;62824;52.994;-3.936;2023-04-25T07:08:13;8.80;90.20
74384;DHT22;62824;52.994;-3.936;2023-04-25T07:10:39;9.10;75.30
74384;DHT22;62824;52.994;-3.936;2023-04-25T07:13:05;9.60;57.80
74384;DHT22;62824;52.994;-3.936;2023-04-25T07:15:31;10.10;46.30
74384;DHT22;62824;52.994;-3.936;2023-04-25T07:17:57;10.30;41.50
74384;DHT22;62824;52.994;-3.936;2023-04-25T07:20:22;10.70;41.50
74384;DHT22;62824;52.994;-3.936;2023-04-25T07:22:48;11.00;37.30
74384;DHT22;62824;52.994;-3.936;2023-04-25T07:25:16;11.30;35.80
74384;DHT22;62824;52.994;-3.936;2023-04-25T07:27:41;11.80;35.50
74384;DHT22;62824;52.994;-3.936;2023-04-25T07:30:08;12.00;33.90
74384;DHT22;62824;52.994;-3.936;2023-04-25T07:32:34;12.30;32.80
74384;DHT22;62824;52.994;-3.936;2023-04-25T07:35:00;12.20;31.00
74384;DHT22;62824;52.994;-3.936;2023-04-25T07:37:27;12.30;32.70
74384;DHT22;62824;52.994;-3.936;2023-04-25T07:39:53;12.60;31.50
74384;DHT22;62824;52.994;-3.936;2023-04-25T07:42:18;12.70;30.40
74384;DHT22;62824;52.994;-3.936;2023-04-25T07:44:44;13.00;30.00
74384;DHT22;62824;52.994;-3.936;2023-04-25T07:47:10;13.00;29.10
74384;DHT22;62824;52.994;-3.936;2023-04-25T07:49:36;13.10;29.20
74384;DHT22;62824;52.994;-3.936;2023-04-25T07:52:03;13.20;29.60
74384;DHT22;62824;52.994;-3.936;2023-04-25T07:54:31;12.80;28.90
74384;DHT22;62824;52.994;-3.936;2023-04-25T07:56:58;12.20;29.80
74384;DHT22;62824;52.994;-3.936;2023-04-25T07:59:23;11.80;32.40
74384;DHT22;62824;52.994;-3.936;2023-04-25T08:01:49;11.60;32.50
74384;DHT22;62824;52.994;-3.936;2023-04-25T08:04:16;11.50;33.10
74384;DHT22;62824;52.994;-3.936;2023-04-25T08:06:42;11.50;33.70
74384;DHT22;62824;52.994;-3.936;2023-04-25T08:09:08;11.50;34.10
74384;DHT22;62824;52.994;-3.936;2023-04-25T08:11:35;11.20;31.80
74384;DHT22;62824;52.994;-3.936;2023-04-25T08:14:01;11.00;34.00
74384;DHT22;62824;52.994;-3.936;2023-04-25T08:16:27;11.20;33.40
74384;DHT22;62824;52.994;-3.936;2023-04-25T08:18:54;11.40;32.90
74384;DHT22;62824;52.994;-3.936;2023-04-25T08:21:20;11.40;32.50
74384;DHT22;62824;52.994;-3.936;2023-04-25T08:23:46;11.20;30.90
74384;DHT22;62824;52.994;-3.936;2023-04-25T08:26:13;11.00;31.60
74384;DHT22;62824;52.994;-3.936;2023-04-25T08:28:39;11.10;32.90
74384;DHT22;62824;52.994;-3.936;2023-04-25T08:31:05;11.30;31.40
74384;DHT22;62824;52.994;-3.936;2023-04-25T08:33:31;11.40;30.10
74384;DHT22;62824;52.994;-3.936;2023-04-25T08:35:58;11.20;30.20
74384;DHT22;62824;52.994;-3.936;2023-04-25T08:38:24;11.20;30.00
74384;DHT22;62824;52.994;-3.936;2023-04-25T08:40:50;10.80;30.40
74384;DHT22;62824;52.994;-3.936;2023-04-25T08:43:20;10.60;30.10
74384;DHT22;62824;52.994;-3.936;2023-04-25T08:45:46;10.60;31.80
74384;DHT22;62824;52.994;-3.936;2023-04-25T08:48:14;10.90;30.20
74384;DHT22;62824;52.994;-3.936;2023-04-25T08:50:51;11.00;30.60
74384;DHT22;62824;52.994;-3.936;2023-04-25T08:53:21;10.90;32.40
74384;DHT22;62824;52.994;-3.936;2023-04-25T08:55:48;11.00;31.30
74384;DHT22;62824;52.994;-3.936;2023-04-25T08:58:14;11.30;31.70
74384;DHT22;62824;52.994;-3.936;2023-04-25T09:00:40;10.90;29.50
74384;DHT22;62824;52.994;-3.936;2023-04-25T09:03:06;11.00;28.90
74384;DHT22;62824;52.994;-3.936;2023-04-25T09:05:36;10.60;29.50
74384;DHT22;62824;52.994;-3.936;2023-04-25T09:08:02;10.70;29.60
74384;DHT22;62824;52.994;-3.936;2023-04-25T09:10:28;10.80;29.40
74384;DHT22;62824;52.994;-3.936;2023-04-25T09:15:56;10.70;30.30
74384;DHT22;62824;52.994;-3.936;2023-04-25T09:18:27;10.70;30.10
74384;DHT22;62824;52.994;-3.936;2023-04-25T09:21:04;10.30;30.90
74384;DHT22;62824;52.994;-3.936;2023-04-25T09:23:30;10.30;32.80
74384;DHT22;62824;52.994;-3.936;2023-04-25T09:26:04;10.30;33.10
74384;DHT22;62824;52.994;-3.936;2023-04-25T09:28:32;10.70;32.00
74384;DHT22;62824;52.994;-3.936;2023-04-25T09:30:58;11.20;30.10
74384;DHT22;62824;52.994;-3.936;2023-04-25T09:33:28;11.20;29.90
74384;DHT22;62824;52.994;-3.936;2023-04-25T09:36:02;11.60;29.20
74384;DHT22;62824;52.994;-3.936;2023-04-25T09:38:30;12.00;29.10
74384;DHT22;62824;52.994;-3.936;2023-04-25T09:40:56;12.40;28.60
74384;DHT22;62824;52.994;-3.936;2023-04-25T09:43:25;12.10;26.30
74384;DHT22;62824;52.994;-3.936;2023-04-25T09:45:54;12.40;26.60
74384;DHT22;62824;52.994;-3.936;2023-04-25T09:48:23;12.80;25.20
74384;DHT22;62824;52.994;-3.936;2023-04-25T09:53:39;12.80;23.50
74384;DHT22;62824;52.994;-3.936;2023-04-25T09:56:07;13.30;23.90
74384;DHT22;62824;52.994;-3.936;2023-04-25T09:58:34;13.70;22.70
74384;DHT22;62824;52.994;-3.936;2023-04-25T10:01:03;14.00;22.60
74384;DHT22;62824;52.994;-3.936;2023-04-25T10:03:34;14.30;22.60
74384;DHT22;62824;52.994;-3.936;2023-04-25T10:06:02;14.40;21.90
74384;DHT22;62824;52.994;-3.936;2023-04-25T10:08:37;14.80;22.20
74384;DHT22;62824;52.994;-3.936;2023-04-25T10:11:05;15.10;20.80
74384;DHT22;62824;52.994;-3.936;2023-04-25T10:13:31;14.80;20.50
74384;DHT22;62824;52.994;-3.936;2023-04-25T10:15:59;15.10;20.90
74384;DHT22;62824;52.994;-3.936;2023-04-25T10:18:27;15.00;20.30
74384;DHT22;62824;52.994;-3.936;2023-04-25T10:20:59;14.30;21.00
74384;DHT22;62824;52.994;-3.936;2023-04-25T10:23:25;13.40;22.20
74384;DHT22;62824;52.994;-3.936;2023-04-25T10:25:52;13.00;23.30
74384;DHT22;62824;52.994;-3.936;2023-04-25T10:28:20;12.90;23.40
74384;DHT22;62824;52.994;-3.936;2023-04-25T10:30:59;12.40;23.10
74384;DHT22;62824;52.994;-3.936;2023-04-25T10:33:43;12.30;25.10
74384;DHT22;62824;52.994;-3.936;2023-04-25T10:36:18;12.20;25.10
74384;DHT22;62824;52.994;-3.936;2023-04-25T10:38:45;12.50;25.20
74384;DHT22;62824;52.994;-3.936;2023-04-25T10:41:13;12.40;24.10
74384;DHT22;62824;52.994;-3.936;2023-04-25T10:43:41;12.00;25.30
74384;DHT22;62824;52.994;-3.936;2023-04-25T10:48:47;12.00;25.70
74384;DHT22;62824;52.994;-3.936;2023-04-25T10:59:15;12.10;23.90
74384;DHT22;62824;52.994;-3.936;2023-04-25T11:04:25;11.70;24.90
74384;DHT22;62824;52.994;-3.936;2023-04-25T11:09:50;11.70;23.60
74384;DHT22;62824;52.994;-3.936;2023-04-25T11:12:15;12.10;24.40
74384;DHT22;62824;52.994;-3.936;2023-04-25T11:14:42;12.20;24.30
74384;DHT22;62824;52.994;-3.936;2023-04-25T11:17:08;12.20;24.30
74384;DHT22;62824;52.994;-3.936;2023-04-25T11:19:35;11.90;24.50
74384;DHT22;62824;52.994;-3.936;2023-04-25T11:22:02;11.80;25.20
74384;DHT22;62824;52.994;-3.936;2023-04-25T11:24:33;11.70;25.30
74384;DHT22;62824;52.994;-3.936;2023-04-25T11:27:03;11.70;25.00
74384;DHT22;62824;52.994;-3.936;2023-04-25T11:29:33;11.90;24.20
74384;DHT22;62824;52.994;-3.936;2023-04-25T11:31:59;11.80;24.30
74384;DHT22;62824;52.994;-3.936;2023-04-25T11:34:27;11.90;25.30
74384;DHT22;62824;52.994;-3.936;2023-04-25T11:36:56;12.10;24.10
74384;DHT22;62824;52.994;-3.936;2023-04-25T11:39:23;12.00;23.80
74384;DHT22;62824;52.994;-3.936;2023-04-25T11:41:49;12.00;23.90
74384;DHT22;62824;52.994;-3.936;2023-04-25T11:44:17;12.20;24.60
74384;DHT22;62824;52.994;-3.936;2023-04-25T11:46:44;12.20;23.60
74384;DHT22;62824;52.994;-3.936;2023-04-25T11:49:10;12.00;23.80
74384;DHT22;62824;52.994;-3.936;2023-04-25T11:51:40;12.10;24.00
74384;DHT22;62824;52.994;-3.936;2023-04-25T11:54:06;12.00;23.50
74384;DHT22;62824;52.994;-3.936;2023-04-25T11:56:32;12.10;23.60
74384;DHT22;62824;52.994;-3.936;2023-04-25T11:59:04;11.90;23.60
74384;DHT22;62824;52.994;-3.936;2023-04-25T12:01:31;11.90;23.70
74384;DHT22;62824;52.994;-3.936;2023-04-25T12:03:59;11.90;23.00
74384;DHT22;62824;52.994;-3.936;2023-04-25T12:06:37;11.70;23.30
74384;DHT22;62824;52.994;-3.936;2023-04-25T12:09:11;11.90;23.70
74384;DHT22;62824;52.994;-3.936;2023-04-25T12:11:45;12.00;23.90
74384;DHT22;62824;52.994;-3.936;2023-04-25T12:14:12;12.30;23.80
74384;DHT22;62824;52.994;-3.936;2023-04-25T12:16:46;13.00;21.60
74384;DHT22;62824;52.994;-3.936;2023-04-25T12:19:16;12.70;21.70
74384;DHT22;62824;52.994;-3.936;2023-04-25T12:21:43;13.10;21.80
74384;DHT22;62824;52.994;-3.936;2023-04-25T12:24:16;12.90;21.60
74384;DHT22;62824;52.994;-3.936;2023-04-25T12:27:04;13.40;22.50
74384;DHT22;62824;52.994;-3.936;2023-04-25T12:29:32;14.80;20.60
74384;DHT22;62824;52.994;-3.936;2023-04-25T12:31:58;15.50;19.60
74384;DHT22;62824;52.994;-3.936;2023-04-25T12:34:25;15.50;18.30
74384;DHT22;62824;52.994;-3.936;2023-04-25T12:36:52;16.00;18.20
74384;DHT22;62824;52.994;-3.936;2023-04-25T12:39:19;15.30;18.40
74384;DHT22;62824;52.994;-3.936;2023-04-25T12:41:46;14.80;18.60
74384;DHT22;62824;52.994;-3.936;2023-04-25T12:44:12;14.90;19.10
74384;DHT22;62824;52.994;-3.936;2023-04-25T12:46:38;14.60;18.70
74384;DHT22;62824;52.994;-3.936;2023-04-25T12:49:05;14.40;19.60
74384;DHT22;62824;52.994;-3.936;2023-04-25T12:51:34;14.50;20.30
74384;DHT22;62824;52.994;-3.936;2023-04-25T12:54:00;14.40;19.90
74384;DHT22;62824;52.994;-3.936;2023-04-25T12:56:27;14.50;19.80
74384;DHT22;62824;52.994;-3.936;2023-04-25T12:58:53;14.40;19.70
74384;DHT22;62824;52.994;-3.936;2023-04-25T13:01:20;14.10;20.10
74384;DHT22;62824;52.994;-3.936;2023-04-25T13:03:46;14.00;20.60
74384;DHT22;62824;52.994;-3.936;2023-04-25T13:06:12;13.90;20.70
74384;DHT22;62824;52.994;-3.936;2023-04-25T13:08:38;14.10;20.90
74384;DHT22;62824;52.994;-3.936;2023-04-25T13:11:05;14.20;20.20
74384;DHT22;62824;52.994;-3.936;2023-04-25T13:13:31;13.90;20.70
74384;DHT22;62824;52.994;-3.936;2023-04-25T13:15:58;13.10;20.80
74384;DHT22;62824;52.994;-3.936;2023-04-25T13:18:23;12.70;21.50
74384;DHT22;62824;52.994;-3.936;2023-04-25T13:20:52;12.60;22.30
74384;DHT22;62824;52.994;-3.936;2023-04-25T13:23:19;12.90;21.80
74384;DHT22;62824;52.994;-3.936;2023-04-25T13:25:46;12.70;21.60
74384;DHT22;62824;52.994;-3.936;2023-04-25T13:28:12;12.70;22.10
74384;DHT22;62824;52.994;-3.936;2023-04-25T13:30:38;13.00;21.90
74384;DHT22;62824;52.994;-3.936;2023-04-25T13:33:04;13.10;21.90
74384;DHT22;62824;52.994;-3.936;2023-04-25T13:35:33;13.20;21.40
74384;DHT22;62824;52.994;-3.936;2023-04-25T13:37:59;13.20;21.40
74384;DHT22;62824;52.994;-3.936;2023-04-25T13:40:26;13.00;21.60
74384;DHT22;62824;52.994;-3.936;2023-04-25T13:42:52;13.10;22.00
74384;DHT22;62824;52.994;-3.936;2023-04-25T13:45:19;13.40;21.40
74384;DHT22;62824;52.994;-3.936;2023-04-25T13:47:45;13.50;21.20
74384;DHT22;62824;52.994;-3.936;2023-04-25T13:50:11;13.60;20.60
74384;DHT22;62824;52.994;-3.936;2023-04-25T13:52:37;13.40;20.50
74384;DHT22;62824;52.994;-3.936;2023-04-25T13:55:03;13.00;21.00
74384;DHT22;62824;52.994;-3.936;2023-04-25T13:57:30;12.90;21.00
74384;DHT22;62824;52.994;-3.936;2023-04-25T14:00:00;12.70;21.60
74384;DHT22;62824;52.994;-3.936;2023-04-25T14:02:30;12.50;21.70
74384;DHT22;62824;52.994;-3.936;2023-04-25T14:04:56;12.50;21.90
74384;DHT22;62824;52.994;-3.936;2023-04-25T14:07:21;12.60;21.80
74384;DHT22;62824;52.994;-3.936;2023-04-25T14:09:47;12.50;22.60
74384;DHT22;62824;52.994;-3.936;2023-04-25T14:12:13;12.50;23.10
74384;DHT22;62824;52.994;-3.936;2023-04-25T14:14:39;12.60;23.90
74384;DHT22;62824;52.994;-3.936;2023-04-25T14:17:05;12.80;22.60
74384;DHT22;62824;52.994;-3.936;2023-04-25T14:19:32;13.10;22.50
74384;DHT22;62824;52.994;-3.936;2023-04-25T14:21:57;13.20;22.00
74384;DHT22;62824;52.994;-3.936;2023-04-25T14:24:23;13.30;21.80
74384;DHT22;62824;52.994;-3.936;2023-04-25T14:26:49;13.20;22.30
74384;DHT22;62824;52.994;-3.936;2023-04-25T14:29:15;13.00;22.30
74384;DHT22;62824;52.994;-3.936;2023-04-25T14:31:41;12.70;22.90
74384;DHT22;62824;52.994;-3.936;2023-04-25T14:34:07;12.50;23.00
74384;DHT22;62824;52.994;-3.936;2023-04-25T14:36:33;12.40;23.30
74384;DHT22;62824;52.994;-3.936;2023-04-25T14:38:59;12.50;23.80
74384;DHT22;62824;52.994;-3.936;2023-04-25T14:41:26;12.40;23.00
74384;DHT22;62824;52.994;-3.936;2023-04-25T14:43:52;12.30;23.70
74384;DHT22;62824;52.994;-3.936;2023-04-25T14:46:21;12.20;23.50
74384;DHT22;62824;52.994;-3.936;2023-04-25T14:48:48;12.40;24.20
74384;DHT22;62824;52.994;-3.936;2023-04-25T14:51:14;12.20;24.40
74384;DHT22;62824;52.994;-3.936;2023-04-25T14:53:41;12.50;24.10
74384;DHT22;62824;52.994;-3.936;2023-04-25T14:56:07;12.70;24.50
74384;DHT22;62824;52.994;-3.936;2023-04-25T14:58:33;12.90;23.70
74384;DHT22;62824;52.994;-3.936;2023-04-25T15:00:59;12.90;22.90
74384;DHT22;62824;52.994;-3.936;2023-04-25T15:03:25;12.90;22.60
74384;DHT22;62824;52.994;-3.936;2023-04-25T15:05:52;12.60;22.20
74384;DHT22;62824;52.994;-3.936;2023-04-25T15:08:18;12.40;22.70
74384;DHT22;62824;52.994;-3.936;2023-04-25T15:10:44;12.30;23.90
74384;DHT22;62824;52.994;-3.936;2023-04-25T15:13:11;12.20;23.30
74384;DHT22;62824;52.994;-3.936;2023-04-25T15:15:37;12.30;23.40
74384;DHT22;62824;52.994;-3.936;2023-04-25T15:18:03;12.30;23.30
74384;DHT22;62824;52.994;-3.936;2023-04-25T15:20:29;12.60;23.30
74384;DHT22;62824;52.994;-3.936;2023-04-25T15:22:55;12.80;22.40
74384;DHT22;62824;52.994;-3.936;2023-04-25T15:25:21;12.80;22.50
74384;DHT22;62824;52.994;-3.936;2023-04-25T15:27:47;12.70;23.10
74384;DHT22;62824;52.994;-3.936;2023-04-25T15:30:15;12.70;22.70
74384;DHT22;62824;52.994;-3.936;2023-04-25T15:32:47;12.40;23.60
74384;DHT22;62824;52.994;-3.936;2023-04-25T15:35:14;12.40;23.50
74384;DHT22;62824;52.994;-3.936;2023-04-25T15:37:40;12.40;23.10
74384;DHT22;62824;52.994;-3.936;2023-04-25T15:40:16;12.40;23.10
74384;DHT22;62824;52.994;-3.936;2023-04-25T15:42:44;12.50;23.50